createdAt,value
2022-11-04T00:00:02.075Z,4.00
2022-11-04T00:01:02.162Z,4.20
2022-11-04T00:02:02.074Z,3.30
2022-11-04T00:03:02.061Z,4.20
2022-11-04T00:04:02.068Z,3.00
2022-11-04T00:05:02.131Z,3.50
2022-11-04T00:06:02.022Z,3.10
2022-11-04T00:07:02.042Z,3.40
2022-11-04T00:08:02.026Z,3.20
2022-11-04T00:09:02.026Z,3.30
2022-11-04T00:10:02.038Z,2.70
2022-11-04T00:11:02.002Z,3.40
2022-11-04T00:12:02.019Z,3.00
2022-11-04T00:13:02.007Z,3.40
2022-11-04T00:14:01.980Z,3.60
2022-11-04T00:15:02.017Z,3.30
2022-11-04T00:16:01.964Z,3.20
2022-11-04T00:17:01.974Z,3.70
2022-11-04T00:18:01.960Z,3.60
2022-11-04T00:19:01.939Z,3.60
2022-11-04T00:20:01.974Z,3.70
2022-11-04T00:21:01.938Z,3.70
2022-11-04T00:22:01.926Z,3.70
2022-11-04T00:23:01.965Z,3.80
2022-11-04T00:24:01.931Z,4.00
2022-11-04T00:25:01.908Z,4.50
2022-11-04T00:26:01.947Z,4.50
2022-11-04T00:27:01.893Z,4.60
2022-11-04T00:28:01.888Z,4.50
2022-11-04T00:29:01.890Z,4.20
2022-11-04T00:30:01.885Z,4.30
2022-11-04T00:31:01.894Z,4.20
2022-11-04T00:32:01.873Z,4.90
2022-11-04T00:33:01.893Z,4.70
2022-11-04T00:34:01.878Z,5.10
2022-11-04T00:35:01.865Z,5.10
2022-11-04T00:36:01.847Z,5.30
2022-11-04T00:37:01.838Z,5.00
2022-11-04T00:38:01.834Z,5.20
2022-11-04T00:39:01.848Z,5.30
2022-11-04T00:40:01.819Z,4.90
2022-11-04T00:41:01.816Z,5.40
2022-11-04T00:42:01.799Z,5.00
2022-11-04T00:43:01.805Z,4.70
2022-11-04T00:44:01.822Z,5.90
2022-11-04T00:45:01.786Z,5.50
2022-11-04T00:46:01.775Z,5.30
2022-11-04T00:47:01.799Z,5.50
2022-11-04T00:48:01.786Z,5.60
2022-11-04T00:49:01.773Z,5.50
2022-11-04T00:50:01.757Z,5.60
2022-11-04T00:51:01.784Z,5.60
2022-11-04T00:52:01.761Z,5.90
2022-11-04T00:53:01.745Z,5.70
2022-11-04T00:54:01.757Z,5.70
2022-11-04T00:55:01.739Z,5.80
2022-11-04T00:56:01.748Z,6.10
2022-11-04T00:57:01.712Z,6.00
2022-11-04T00:58:01.697Z,6.40
2022-11-04T00:59:02.737Z,6.00
2022-11-04T01:00:01.707Z,6.20
2022-11-04T01:01:01.784Z,6.10
2022-11-04T01:02:01.834Z,5.90
2022-11-04T01:03:01.693Z,5.90
2022-11-04T01:04:01.716Z,6.00
2022-11-04T01:05:01.719Z,6.50
2022-11-04T01:06:01.682Z,6.10
2022-11-04T01:07:01.659Z,6.60
2022-11-04T01:08:01.654Z,6.10
2022-11-04T01:09:01.638Z,5.70
2022-11-04T01:10:01.810Z,5.40
2022-11-04T01:11:01.630Z,6.20
2022-11-04T01:12:01.663Z,6.40
2022-11-04T01:13:01.633Z,6.10
2022-11-04T01:14:01.632Z,6.60
2022-11-04T01:15:01.729Z,6.10
2022-11-04T01:16:02.602Z,6.10
2022-11-04T01:17:01.639Z,6.10
2022-11-04T01:18:02.597Z,6.70
2022-11-04T01:19:01.591Z,6.50
2022-11-04T01:20:01.578Z,5.70
2022-11-04T01:21:01.577Z,6.10
2022-11-04T01:22:01.624Z,5.70
2022-11-04T01:23:01.583Z,6.00
2022-11-04T01:24:01.570Z,5.50
2022-11-04T01:25:01.576Z,5.30
2022-11-04T01:26:01.554Z,4.90
2022-11-04T01:27:01.563Z,5.10
2022-11-04T01:28:01.538Z,5.20
2022-11-04T01:29:01.536Z,5.30
2022-11-04T01:30:01.529Z,5.00
2022-11-04T01:31:01.535Z,5.10
2022-11-04T01:32:01.512Z,5.20
2022-11-04T01:33:01.546Z,4.50
2022-11-04T01:34:01.509Z,5.00
2022-11-04T01:35:01.502Z,5.00
2022-11-04T01:36:01.488Z,4.50
2022-11-04T01:37:01.468Z,4.80
2022-11-04T01:38:01.528Z,4.80
2022-11-04T01:39:01.464Z,4.70
2022-11-04T01:40:01.466Z,4.40
2022-11-04T01:41:01.459Z,4.60
2022-11-04T01:43:02.481Z,4.80
2022-11-04T01:44:01.434Z,5.10
2022-11-04T01:45:01.464Z,5.00
2022-11-04T01:46:01.439Z,5.20
2022-11-04T01:47:01.407Z,5.40
2022-11-04T01:48:01.444Z,5.30
2022-11-04T01:49:01.435Z,5.30
2022-11-04T01:50:01.403Z,4.80
2022-11-04T01:51:01.404Z,4.80
2022-11-04T01:52:01.378Z,4.60
2022-11-04T01:53:01.404Z,4.60
2022-11-04T01:54:01.426Z,5.00
2022-11-04T01:55:01.390Z,4.40
2022-11-04T01:56:02.394Z,3.50
2022-11-04T01:57:01.353Z,4.00
2022-11-04T01:58:01.375Z,3.60
2022-11-04T01:59:01.366Z,3.50
2022-11-04T02:00:01.381Z,3.00
2022-11-04T02:01:01.416Z,2.80
2022-11-04T02:02:01.460Z,2.70
2022-11-04T02:03:01.335Z,2.90
2022-11-04T02:04:01.371Z,2.40
2022-11-04T02:05:01.314Z,2.50
2022-11-04T02:06:01.324Z,2.70
2022-11-04T02:07:01.333Z,2.30
2022-11-04T02:08:01.288Z,2.40
2022-11-04T02:09:01.299Z,2.50
2022-11-04T02:10:01.312Z,1.70
2022-11-04T02:11:01.306Z,1.90
2022-11-04T02:12:01.296Z,2.10
2022-11-04T02:13:01.320Z,2.10
2022-11-04T02:14:01.263Z,1.90
2022-11-04T02:15:01.258Z,2.20
2022-11-04T02:16:01.237Z,2.30
2022-11-04T02:17:01.246Z,2.40
2022-11-04T02:18:01.258Z,1.70
2022-11-04T02:19:01.234Z,2.20
2022-11-04T02:20:01.218Z,1.80
2022-11-04T02:21:01.226Z,1.80
2022-11-04T02:22:01.231Z,1.60
2022-11-04T02:23:01.234Z,1.30
2022-11-04T02:24:01.200Z,1.10
2022-11-04T02:25:01.199Z,1.30
2022-11-04T02:26:01.197Z,1.40
2022-11-04T02:27:01.187Z,1.20
2022-11-04T02:28:02.217Z,1.40
2022-11-04T02:29:01.186Z,1.00
2022-11-04T02:30:01.167Z,1.30
2022-11-04T02:31:01.209Z,1.10
2022-11-04T02:32:01.172Z,1.00
2022-11-04T02:33:01.130Z,1.10
2022-11-04T02:34:02.137Z,1.10
2022-11-04T02:35:01.168Z,1.00
2022-11-04T02:36:01.202Z,0.90
2022-11-04T02:37:02.111Z,0.90
2022-11-04T02:38:01.136Z,0.90
2022-11-04T02:39:01.104Z,0.60
2022-11-04T02:40:01.096Z,0.80
2022-11-04T02:41:01.113Z,0.60
2022-11-04T02:42:01.105Z,0.60
2022-11-04T02:43:01.114Z,0.80
2022-11-04T02:44:01.176Z,0.60
2022-11-04T02:45:01.088Z,0.70
2022-11-04T02:46:01.100Z,0.60
2022-11-04T02:47:01.068Z,0.70
2022-11-04T02:48:01.041Z,0.70
2022-11-04T02:49:01.038Z,0.70
2022-11-04T02:50:01.038Z,0.70
2022-11-04T02:51:01.070Z,0.80
2022-11-04T02:52:02.060Z,0.70
2022-11-04T02:53:01.025Z,0.70
2022-11-04T02:54:01.021Z,0.60
2022-11-04T02:55:01.036Z,0.60
2022-11-04T02:56:01.023Z,0.70
2022-11-04T02:57:01.024Z,0.70
2022-11-04T02:58:00.993Z,0.50
2022-11-04T02:59:00.990Z,0.70
2022-11-04T03:00:00.978Z,0.70
2022-11-04T03:01:01.098Z,0.70
2022-11-04T03:02:01.194Z,0.70
2022-11-04T03:03:00.973Z,0.80
2022-11-04T03:04:00.956Z,0.60
2022-11-04T03:05:00.955Z,1.00
2022-11-04T03:06:00.980Z,0.60
2022-11-04T03:07:01.021Z,0.60
2022-11-04T03:08:01.515Z,0.60
2022-11-04T03:09:00.944Z,0.70
2022-11-04T03:10:00.907Z,0.70
2022-11-04T03:11:00.947Z,0.90
2022-11-04T03:12:00.923Z,0.70
2022-11-04T03:13:00.898Z,0.70
2022-11-04T03:14:00.913Z,0.80
2022-11-04T03:15:00.879Z,0.70
2022-11-04T03:16:00.897Z,0.80
2022-11-04T03:17:00.891Z,0.60
2022-11-04T03:18:00.855Z,0.50
2022-11-04T03:19:00.878Z,0.60
2022-11-04T03:20:00.866Z,0.70
2022-11-04T03:21:00.851Z,0.70
2022-11-04T03:22:00.832Z,0.40
2022-11-04T03:23:00.842Z,0.60
2022-11-04T03:24:00.853Z,1.10
2022-11-04T03:25:00.826Z,0.70
2022-11-04T03:26:00.829Z,0.60
2022-11-04T03:27:00.832Z,0.80
2022-11-04T03:28:00.795Z,0.70
2022-11-04T03:29:00.882Z,0.60
2022-11-04T03:30:00.864Z,0.60
2022-11-04T03:31:00.782Z,0.60
2022-11-04T03:32:00.790Z,0.80
2022-11-04T03:33:00.789Z,0.70
2022-11-04T03:34:00.776Z,0.60
2022-11-04T03:35:00.798Z,0.50
2022-11-04T03:36:00.797Z,0.60
2022-11-04T03:37:00.769Z,0.60
2022-11-04T03:38:00.744Z,0.60
2022-11-04T03:39:00.742Z,0.70
2022-11-04T03:40:00.755Z,0.70
2022-11-04T03:41:00.728Z,0.60
2022-11-04T03:42:00.726Z,0.90
2022-11-04T03:43:00.735Z,0.70
2022-11-04T03:44:00.710Z,0.70
2022-11-04T03:45:00.725Z,1.30
2022-11-04T03:46:00.708Z,0.80
2022-11-04T03:47:00.695Z,0.90
2022-11-04T03:48:00.706Z,0.80
2022-11-04T03:49:00.677Z,0.90
2022-11-04T03:50:00.686Z,0.90
2022-11-04T03:51:00.726Z,1.00
2022-11-04T03:52:00.670Z,0.80
2022-11-04T03:53:00.659Z,0.90
2022-11-04T03:54:00.665Z,1.10
2022-11-04T03:55:00.656Z,0.90
2022-11-04T03:56:00.686Z,0.80
2022-11-04T03:57:00.666Z,0.80
2022-11-04T03:58:00.641Z,0.80
2022-11-04T03:59:00.639Z,0.80
2022-11-04T04:00:00.614Z,0.90
2022-11-04T04:01:00.653Z,0.90
2022-11-04T04:02:00.817Z,1.00
2022-11-04T04:03:00.974Z,0.90
2022-11-04T04:04:00.603Z,1.00
2022-11-04T04:05:00.632Z,0.80
2022-11-04T04:06:00.587Z,0.80
2022-11-04T04:07:00.580Z,1.20
2022-11-04T04:08:00.573Z,0.90
2022-11-04T04:09:00.587Z,1.00
2022-11-04T04:10:00.565Z,0.80
2022-11-04T04:11:00.552Z,1.00
2022-11-04T04:12:01.520Z,1.00
2022-11-04T04:13:00.560Z,1.00
2022-11-04T04:14:00.569Z,1.00
2022-11-04T04:15:00.650Z,1.00
2022-11-04T04:16:00.542Z,0.90
2022-11-04T04:17:00.556Z,0.80
2022-11-04T04:18:00.635Z,0.80
2022-11-04T04:19:00.551Z,0.90
2022-11-04T04:20:00.511Z,0.90
2022-11-04T04:21:00.488Z,0.80
2022-11-04T04:22:00.487Z,0.90
2022-11-04T04:23:00.490Z,0.90
2022-11-04T04:24:00.504Z,0.80
2022-11-04T04:25:00.509Z,0.90
2022-11-04T04:26:00.471Z,0.90
2022-11-04T04:27:00.465Z,1.00
2022-11-04T04:28:00.455Z,0.90
2022-11-04T04:29:00.447Z,0.90
2022-11-04T04:30:00.467Z,1.00
2022-11-04T04:31:00.567Z,0.90
2022-11-04T04:32:00.450Z,0.90
2022-11-04T04:33:00.427Z,1.00
2022-11-04T04:34:00.434Z,1.00
2022-11-04T04:35:00.587Z,0.90
2022-11-04T04:36:00.493Z,1.00
2022-11-04T04:37:00.413Z,0.80
2022-11-04T04:38:00.390Z,0.90
2022-11-04T04:39:00.413Z,1.10
2022-11-04T04:40:00.449Z,1.20
2022-11-04T04:41:00.425Z,0.80
2022-11-04T04:42:00.376Z,0.80
2022-11-04T04:43:00.380Z,1.00
2022-11-04T04:44:00.367Z,1.00
2022-11-04T04:45:00.361Z,0.70
2022-11-04T04:46:00.385Z,1.00
2022-11-04T04:47:00.378Z,1.00
2022-11-04T04:48:00.366Z,0.80
2022-11-04T04:49:00.338Z,0.80
2022-11-04T04:50:00.338Z,0.90
2022-11-04T04:51:00.349Z,1.00
2022-11-04T04:52:01.253Z,1.10
2022-11-04T04:53:00.367Z,0.80
2022-11-04T04:54:00.314Z,0.90
2022-11-04T04:55:00.307Z,1.00
2022-11-04T04:56:00.323Z,0.80
2022-11-04T04:57:00.365Z,0.90
2022-11-04T04:58:00.320Z,0.70
2022-11-04T04:59:00.285Z,0.80
2022-11-04T05:00:00.288Z,0.80
2022-11-04T05:01:00.369Z,1.00
2022-11-04T05:02:00.540Z,1.10
2022-11-04T05:03:00.320Z,1.00
2022-11-04T05:04:00.263Z,0.80
2022-11-04T05:05:00.326Z,0.70
2022-11-04T05:06:00.291Z,0.80
2022-11-04T05:07:00.272Z,1.10
2022-11-04T05:08:00.248Z,1.00
2022-11-04T05:09:00.271Z,0.80
2022-11-04T05:10:00.280Z,0.80
2022-11-04T05:11:00.222Z,1.00
2022-11-04T05:12:00.265Z,0.70
2022-11-04T05:13:00.238Z,0.90
2022-11-04T05:14:00.222Z,0.80
2022-11-04T05:15:00.227Z,1.10
2022-11-04T05:16:00.778Z,1.10
2022-11-04T05:17:00.203Z,0.80
2022-11-04T05:18:00.333Z,0.90
2022-11-04T05:19:00.194Z,1.00
2022-11-04T05:20:00.200Z,1.00
2022-11-04T05:21:00.195Z,1.00
2022-11-04T05:22:00.187Z,1.20
2022-11-04T05:23:00.165Z,0.90
2022-11-04T05:24:00.180Z,1.00
2022-11-04T05:25:00.155Z,1.00
2022-11-04T05:26:00.179Z,0.90
2022-11-04T05:27:00.208Z,0.80
2022-11-04T05:28:00.162Z,1.00
2022-11-04T05:29:00.148Z,0.80
2022-11-04T05:30:00.134Z,1.30
2022-11-04T05:31:00.154Z,0.80
2022-11-04T05:32:00.132Z,1.00
2022-11-04T05:33:03.615Z,0.80
2022-11-04T05:34:01.138Z,1.00
2022-11-04T05:35:00.111Z,1.10
2022-11-04T05:36:00.103Z,1.10
2022-11-04T05:37:00.151Z,1.10
2022-11-04T05:38:00.104Z,1.10
2022-11-04T05:39:00.121Z,1.10
2022-11-04T05:40:00.090Z,1.70
2022-11-04T05:41:00.078Z,1.20
2022-11-04T05:42:00.106Z,1.30
2022-11-04T05:43:00.087Z,1.10
2022-11-04T05:44:00.135Z,1.40
2022-11-04T05:45:00.073Z,1.40
2022-11-04T05:46:00.058Z,1.50
2022-11-04T05:47:00.051Z,1.50
2022-11-04T05:48:00.095Z,1.50
2022-11-04T05:49:00.018Z,1.50
2022-11-04T05:50:00.074Z,1.60
2022-11-04T05:51:00.024Z,1.60
2022-11-04T05:52:00.026Z,1.70
2022-11-04T05:53:00.013Z,1.80
2022-11-04T05:54:00.059Z,1.90
2022-11-04T05:55:00.023Z,1.70
2022-11-04T05:56:00.024Z,1.80
2022-11-04T05:57:00.708Z,1.60
2022-11-04T05:58:00.120Z,1.50
2022-11-04T05:58:59.988Z,1.90
2022-11-04T05:59:59.987Z,1.50
2022-11-04T06:00:59.974Z,1.80
2022-11-04T06:02:00.029Z,1.60
2022-11-04T06:03:00.002Z,1.50
2022-11-04T06:03:59.950Z,1.30
2022-11-04T06:05:00.052Z,1.20
2022-11-04T06:05:59.991Z,1.30
2022-11-04T06:06:59.969Z,1.20
2022-11-04T06:07:59.968Z,1.10
2022-11-04T06:08:59.928Z,1.10
2022-11-04T06:09:59.960Z,1.00
2022-11-04T06:10:59.993Z,1.00
2022-11-04T06:11:59.934Z,0.90
2022-11-04T06:12:59.911Z,0.90
2022-11-04T06:13:59.915Z,0.90
2022-11-04T06:14:59.902Z,0.80
2022-11-04T06:16:00.040Z,0.90
2022-11-04T06:16:59.954Z,0.90
2022-11-04T06:17:59.914Z,0.70
2022-11-04T06:19:03.450Z,0.90
2022-11-04T06:20:01.882Z,0.80
2022-11-04T06:20:59.904Z,1.00
2022-11-04T06:21:59.873Z,0.80
2022-11-04T06:22:59.901Z,0.90
2022-11-04T06:23:59.863Z,0.90
2022-11-04T06:24:59.845Z,1.00
2022-11-04T06:25:59.881Z,0.80
2022-11-04T06:26:59.881Z,0.70
2022-11-04T06:27:59.856Z,1.00
2022-11-04T06:28:59.830Z,0.80
2022-11-04T06:29:59.817Z,0.80
2022-11-04T06:30:59.829Z,0.80
2022-11-04T06:31:59.806Z,0.80
2022-11-04T06:32:59.889Z,1.10
2022-11-04T06:33:59.834Z,0.90
2022-11-04T06:34:59.822Z,1.60
2022-11-04T06:35:59.799Z,0.80
2022-11-04T06:36:59.802Z,0.90
2022-11-04T06:37:59.828Z,0.90
2022-11-04T06:39:04.470Z,0.80
2022-11-04T06:40:01.768Z,1.00
2022-11-04T06:40:59.806Z,0.90
2022-11-04T06:42:02.625Z,0.90
2022-11-04T06:43:00.770Z,1.10
2022-11-04T06:43:59.763Z,1.40
2022-11-04T06:44:59.752Z,3.00
2022-11-04T06:45:59.772Z,5.20
2022-11-04T06:46:59.751Z,4.30
2022-11-04T06:47:59.777Z,2.60
2022-11-04T06:48:59.803Z,1.60
2022-11-04T06:49:59.756Z,1.50
2022-11-04T06:50:59.725Z,1.40
2022-11-04T06:51:59.708Z,1.80
2022-11-04T06:52:59.722Z,1.50
2022-11-04T06:53:59.721Z,1.40
2022-11-04T06:54:59.735Z,1.80
2022-11-04T06:55:59.760Z,1.60
2022-11-04T06:56:59.689Z,1.70
2022-11-04T06:57:59.706Z,1.60
2022-11-04T06:58:59.695Z,1.60
2022-11-04T06:59:59.696Z,1.60
2022-11-04T07:00:59.721Z,1.50
2022-11-04T07:02:00.786Z,1.60
2022-11-04T07:02:59.668Z,1.40
2022-11-04T07:03:59.672Z,1.30
2022-11-04T07:04:59.675Z,1.20
2022-11-04T07:05:59.840Z,1.40
2022-11-04T07:06:59.636Z,1.20
2022-11-04T07:07:59.650Z,1.20
2022-11-04T07:08:59.641Z,1.30
2022-11-04T07:09:59.650Z,1.60
2022-11-04T07:10:59.657Z,1.40
2022-11-04T07:11:59.633Z,1.50
2022-11-04T07:12:59.632Z,1.50
2022-11-04T07:13:59.640Z,1.40
2022-11-04T07:14:59.609Z,1.50
2022-11-04T07:15:59.620Z,1.60
2022-11-04T07:16:59.629Z,1.40
2022-11-04T07:17:59.614Z,1.30
2022-11-04T07:18:59.710Z,1.60
2022-11-04T07:19:59.631Z,1.40
2022-11-04T07:20:59.720Z,1.50
2022-11-04T07:21:59.644Z,2.10
2022-11-04T07:22:59.625Z,1.20
2022-11-04T07:23:59.769Z,1.30
2022-11-04T07:24:59.653Z,1.30
2022-11-04T07:25:59.569Z,1.30
2022-11-04T07:26:59.556Z,1.50
2022-11-04T07:28:02.261Z,1.90
2022-11-04T07:29:00.602Z,1.50
2022-11-04T07:29:59.529Z,1.40
2022-11-04T07:30:59.551Z,1.40
2022-11-04T07:31:59.545Z,1.10
2022-11-04T07:32:59.547Z,1.30
2022-11-04T07:33:59.565Z,1.40
2022-11-04T07:34:59.513Z,1.50
2022-11-04T07:35:59.521Z,1.30
2022-11-04T07:36:59.534Z,1.30
2022-11-04T07:38:00.501Z,1.30
2022-11-04T07:38:59.490Z,1.30
2022-11-04T07:39:59.483Z,1.40
2022-11-04T07:40:59.513Z,1.10
2022-11-04T07:41:59.900Z,1.10
2022-11-04T07:43:00.480Z,1.30
2022-11-04T07:43:59.461Z,1.10
2022-11-04T07:44:59.502Z,1.50
2022-11-04T07:45:59.477Z,1.20
2022-11-04T07:46:59.492Z,1.10
2022-11-04T07:47:59.445Z,1.00
2022-11-04T07:48:59.439Z,1.30
2022-11-04T07:49:59.461Z,1.00
2022-11-04T07:50:59.436Z,1.10
2022-11-04T07:51:59.472Z,1.10
2022-11-04T07:52:59.460Z,1.10
2022-11-04T07:53:59.411Z,0.90
2022-11-04T07:54:59.415Z,0.90
2022-11-04T07:55:59.482Z,0.80
2022-11-04T07:56:59.431Z,1.20
2022-11-04T07:57:59.427Z,1.10
2022-11-04T07:58:59.503Z,1.20
2022-11-04T07:59:59.409Z,1.10
2022-11-04T08:00:59.384Z,1.10
2022-11-04T08:01:59.467Z,1.30
2022-11-04T08:02:59.509Z,1.10
2022-11-04T08:03:59.412Z,1.20
2022-11-04T08:04:59.377Z,1.10
2022-11-04T08:05:59.396Z,1.30
2022-11-04T08:06:59.390Z,1.10
2022-11-04T08:07:59.445Z,1.00
2022-11-04T08:08:59.431Z,1.20
2022-11-04T08:09:59.363Z,1.40
2022-11-04T08:10:59.328Z,0.90
2022-11-04T08:11:59.333Z,1.40
2022-11-04T08:12:59.363Z,1.60
2022-11-04T08:13:59.382Z,1.40
2022-11-04T08:14:59.306Z,1.50
2022-11-04T08:15:59.322Z,1.40
2022-11-04T08:16:59.296Z,1.40
2022-11-04T08:17:59.297Z,1.60
2022-11-04T08:18:59.319Z,1.70
2022-11-04T08:19:59.309Z,1.60
2022-11-04T08:20:59.292Z,2.10
2022-11-04T08:21:59.291Z,1.80
2022-11-04T08:22:59.264Z,1.80
2022-11-04T08:23:59.321Z,1.70
2022-11-04T08:24:59.303Z,2.00
2022-11-04T08:25:59.282Z,1.90
2022-11-04T08:26:59.248Z,1.90
2022-11-04T08:28:01.155Z,2.10
2022-11-04T08:29:00.242Z,2.00
2022-11-04T08:29:59.258Z,1.90
2022-11-04T08:30:59.219Z,1.90
2022-11-04T08:31:59.228Z,1.90
2022-11-04T08:32:59.291Z,2.00
2022-11-04T08:33:59.202Z,2.10
2022-11-04T08:34:59.219Z,2.40
2022-11-04T08:35:59.186Z,2.40
2022-11-04T08:36:59.210Z,2.70
2022-11-04T08:37:59.199Z,2.90
2022-11-04T08:38:59.165Z,2.30
2022-11-04T08:39:59.190Z,2.50
2022-11-04T08:41:00.210Z,2.60
2022-11-04T08:42:00.157Z,2.50
2022-11-04T08:42:59.187Z,2.60
2022-11-04T08:43:59.147Z,2.90
2022-11-04T08:44:59.142Z,2.40
2022-11-04T08:45:59.294Z,2.70
2022-11-04T08:46:59.200Z,2.40
2022-11-04T08:48:04.207Z,2.40
2022-11-04T08:49:01.815Z,2.60
2022-11-04T08:49:59.097Z,2.50
2022-11-04T08:50:59.145Z,2.70
2022-11-04T08:51:59.110Z,3.30
2022-11-04T08:52:59.100Z,2.50
2022-11-04T08:53:59.105Z,2.80
2022-11-04T08:54:59.087Z,3.10
2022-11-04T08:55:59.148Z,2.60
2022-11-04T08:56:59.132Z,2.50
2022-11-04T08:57:59.081Z,2.40
2022-11-04T08:58:59.069Z,2.10
2022-11-04T08:59:59.169Z,2.40
2022-11-04T09:00:59.056Z,2.30
2022-11-04T09:01:59.197Z,2.50
2022-11-04T09:02:59.145Z,2.10
2022-11-04T09:03:59.112Z,1.90
2022-11-04T09:04:59.028Z,2.10
2022-11-04T09:05:59.036Z,2.20
2022-11-04T09:06:59.335Z,2.00
2022-11-04T09:07:59.097Z,2.10
2022-11-04T09:08:59.039Z,2.20
2022-11-04T09:09:59.081Z,2.30
2022-11-04T09:10:59.023Z,2.10
2022-11-04T09:11:59.024Z,1.90
2022-11-04T09:12:59.016Z,1.60
2022-11-04T09:13:59.003Z,1.60
2022-11-04T09:14:59.000Z,1.70
2022-11-04T09:15:59.245Z,1.60
2022-11-04T09:16:58.967Z,1.70
2022-11-04T09:17:59.014Z,1.70
2022-11-04T09:18:58.956Z,1.60
2022-11-04T09:19:59.019Z,1.50
2022-11-04T09:20:58.976Z,1.60
2022-11-04T09:21:58.938Z,1.60
2022-11-04T09:22:58.938Z,1.60
2022-11-04T09:23:59.003Z,1.40
2022-11-04T09:24:58.992Z,1.60
2022-11-04T09:25:58.934Z,1.60
2022-11-04T09:26:58.928Z,1.10
2022-11-04T09:27:58.905Z,1.70
2022-11-04T09:28:59.032Z,1.40
2022-11-04T09:29:58.922Z,1.60
2022-11-04T09:30:58.895Z,1.40
2022-11-04T09:31:59.381Z,1.50
2022-11-04T09:32:58.905Z,1.40
2022-11-04T09:33:58.858Z,1.60
2022-11-04T09:34:58.909Z,1.80
2022-11-04T09:35:58.851Z,1.70
2022-11-04T09:36:58.850Z,1.60
2022-11-04T09:37:58.892Z,1.80
2022-11-04T09:38:58.937Z,1.70
2022-11-04T09:39:58.868Z,1.80
2022-11-04T09:40:58.823Z,2.20
2022-11-04T09:41:58.843Z,1.80
2022-11-04T09:42:58.850Z,2.40
2022-11-04T09:43:58.815Z,2.10
2022-11-04T09:46:00.832Z,2.50
2022-11-04T09:46:58.818Z,2.10
2022-11-04T09:47:58.876Z,2.10
2022-11-04T09:48:58.774Z,2.10
2022-11-04T09:49:58.760Z,2.10
2022-11-04T09:50:58.762Z,2.00
2022-11-04T09:51:58.750Z,2.10
2022-11-04T09:52:58.773Z,2.30
2022-11-04T09:53:58.752Z,2.40
2022-11-04T09:54:58.716Z,1.90
2022-11-04T09:55:58.715Z,1.90
2022-11-04T09:56:58.709Z,2.10
2022-11-04T09:57:58.833Z,1.80
2022-11-04T09:58:58.694Z,1.80
2022-11-04T09:59:58.702Z,2.10
2022-11-04T10:00:58.774Z,2.00
2022-11-04T10:01:58.778Z,1.80
2022-11-04T10:02:58.702Z,2.00
2022-11-04T10:03:58.725Z,1.90
2022-11-04T10:04:58.651Z,1.60
2022-11-04T10:05:58.643Z,1.50
2022-11-04T10:06:58.651Z,1.70
2022-11-04T10:07:58.656Z,1.90
2022-11-04T10:08:58.672Z,1.90
2022-11-04T10:09:58.616Z,1.80
2022-11-04T10:10:58.613Z,1.70
2022-11-04T10:11:58.610Z,2.20
2022-11-04T10:12:58.637Z,1.80
2022-11-04T10:13:58.611Z,1.70
2022-11-04T10:14:58.607Z,1.90
2022-11-04T10:15:58.590Z,1.80
2022-11-04T10:16:58.606Z,2.00
2022-11-04T10:17:58.572Z,1.50
2022-11-04T10:18:58.588Z,2.00
2022-11-04T10:19:58.621Z,2.10
2022-11-04T10:20:58.541Z,1.50
2022-11-04T10:21:58.542Z,1.60
2022-11-04T10:22:58.557Z,2.00
2022-11-04T10:23:58.530Z,1.80
2022-11-04T10:24:58.581Z,2.10
2022-11-04T10:25:58.541Z,1.90
2022-11-04T10:27:00.750Z,1.90
2022-11-04T10:27:59.516Z,1.70
2022-11-04T10:28:58.494Z,1.70
2022-11-04T10:29:58.508Z,1.90
2022-11-04T10:30:58.473Z,1.90
2022-11-04T10:31:58.476Z,1.70
2022-11-04T10:32:58.511Z,1.70
2022-11-04T10:33:58.467Z,1.70
2022-11-04T10:34:58.483Z,1.90
2022-11-04T10:35:58.547Z,2.20
2022-11-04T10:36:58.442Z,1.80
2022-11-04T10:37:58.422Z,1.90
2022-11-04T10:38:58.435Z,2.10
2022-11-04T10:39:58.432Z,1.90
2022-11-04T10:41:01.725Z,2.00
2022-11-04T10:41:59.397Z,1.90
2022-11-04T10:42:58.401Z,2.10
2022-11-04T10:43:58.393Z,1.60
2022-11-04T10:44:58.473Z,2.00
2022-11-04T10:45:58.408Z,2.30
2022-11-04T10:46:58.377Z,2.20
2022-11-04T10:47:58.431Z,1.90
2022-11-04T10:48:58.373Z,1.60
2022-11-04T10:51:00.408Z,2.00
2022-11-04T10:51:58.463Z,2.00
2022-11-04T10:52:58.316Z,2.10
2022-11-04T10:53:58.337Z,2.90
2022-11-04T10:54:59.342Z,2.10
2022-11-04T10:55:58.315Z,1.70
2022-11-04T10:56:58.371Z,2.20
2022-11-04T10:57:58.302Z,2.30
2022-11-04T10:58:58.376Z,1.90
2022-11-04T10:59:58.276Z,1.80
2022-11-04T11:00:58.366Z,2.00
2022-11-04T11:01:58.487Z,2.20
2022-11-04T11:02:58.263Z,2.00
2022-11-04T11:03:58.279Z,2.00
2022-11-04T11:04:58.276Z,2.00
2022-11-04T11:05:58.244Z,2.30
2022-11-04T11:06:58.391Z,2.10
2022-11-04T11:07:58.251Z,2.00
2022-11-04T11:08:58.217Z,1.90
2022-11-04T11:09:58.238Z,2.90
2022-11-04T11:10:58.210Z,1.90
2022-11-04T11:11:58.211Z,2.10
2022-11-04T11:12:58.197Z,2.40
2022-11-04T11:13:58.211Z,2.10
2022-11-04T11:14:58.197Z,2.00
2022-11-04T11:15:58.174Z,1.80
2022-11-04T11:16:58.154Z,1.70
2022-11-04T11:17:58.176Z,2.10
2022-11-04T11:18:58.181Z,2.20
2022-11-04T11:19:58.137Z,2.10
2022-11-04T11:20:58.129Z,1.70
2022-11-04T11:21:58.147Z,1.80
2022-11-04T11:23:03.541Z,1.40
2022-11-04T11:24:00.114Z,1.90
2022-11-04T11:24:58.150Z,1.80
2022-11-04T11:25:58.120Z,1.80
2022-11-04T11:26:58.089Z,1.80
2022-11-04T11:27:58.096Z,1.60
2022-11-04T11:28:59.385Z,1.80
2022-11-04T11:29:59.072Z,2.70
2022-11-04T11:30:58.066Z,1.90
2022-11-04T11:31:58.081Z,1.90
2022-11-04T11:32:58.039Z,2.30
2022-11-04T11:33:58.022Z,1.80
2022-11-04T11:34:58.026Z,2.00
2022-11-04T11:35:58.059Z,2.80
2022-11-04T11:36:58.019Z,2.00
2022-11-04T11:37:57.998Z,2.40
2022-11-04T11:38:57.985Z,2.00
2022-11-04T11:39:58.021Z,1.70
2022-11-04T11:41:23.479Z,2.20
2022-11-04T11:41:59.959Z,2.10
2022-11-04T11:42:57.968Z,1.90
2022-11-04T11:43:57.981Z,1.70
2022-11-04T11:44:57.953Z,2.00
2022-11-04T11:45:57.936Z,2.00
2022-11-04T11:46:57.952Z,2.00
2022-11-04T11:47:57.910Z,2.20
2022-11-04T11:48:57.971Z,1.90
2022-11-04T11:49:57.906Z,1.90
2022-11-04T11:50:57.920Z,1.90
2022-11-04T11:51:57.891Z,1.60
2022-11-04T11:52:57.919Z,2.00
2022-11-04T11:53:57.891Z,2.00
2022-11-04T11:54:57.884Z,2.10
2022-11-04T11:55:57.901Z,1.60
2022-11-04T11:57:15.162Z,1.90
2022-11-04T12:01:05.965Z,2.00
2022-11-04T12:01:59.914Z,1.90
2022-11-04T12:02:57.995Z,1.70
2022-11-04T12:09:59.781Z,1.90
2022-11-04T12:10:57.758Z,2.00
2022-11-04T12:11:57.821Z,1.70
2022-11-04T12:12:57.766Z,2.20
2022-11-04T12:13:57.760Z,1.70
2022-11-04T12:14:57.718Z,1.70
2022-11-04T12:15:57.705Z,1.90
2022-11-04T12:16:57.723Z,1.80
2022-11-04T12:17:57.712Z,1.80
2022-11-04T12:18:57.661Z,1.90
2022-11-04T12:19:58.718Z,1.60
2022-11-04T12:20:57.673Z,1.80
2022-11-04T12:21:57.686Z,2.00
2022-11-04T12:22:57.670Z,2.00
2022-11-04T12:23:57.652Z,1.60
2022-11-04T12:24:57.744Z,1.50
2022-11-04T12:25:57.632Z,1.70
2022-11-04T12:26:57.632Z,1.80
2022-11-04T12:27:57.635Z,1.90
2022-11-04T12:28:57.841Z,1.90
2022-11-04T12:29:57.596Z,1.70
2022-11-04T12:30:57.650Z,1.90
2022-11-04T12:31:57.624Z,1.50
2022-11-04T12:32:57.577Z,1.90
2022-11-04T12:33:57.575Z,2.00
2022-11-04T12:34:57.566Z,1.80
2022-11-04T12:35:57.574Z,1.70
2022-11-04T12:36:57.617Z,2.00
2022-11-04T12:37:57.584Z,1.40
2022-11-04T12:38:57.580Z,1.70
2022-11-04T12:39:57.518Z,1.40
2022-11-04T12:41:19.081Z,1.60
2022-11-04T12:42:20.213Z,2.00
2022-11-04T12:42:59.523Z,1.60
2022-11-04T12:43:57.531Z,2.10
2022-11-04T12:44:57.491Z,1.90
2022-11-04T12:45:57.488Z,1.70
2022-11-04T12:46:57.478Z,1.80
2022-11-04T12:47:57.481Z,1.60
2022-11-04T12:49:00.759Z,1.50
2022-11-04T12:49:59.459Z,1.70
2022-11-04T12:50:57.438Z,1.40
2022-11-04T12:51:57.442Z,1.80
2022-11-04T12:52:57.454Z,1.60
2022-11-04T12:53:57.426Z,1.90
2022-11-04T12:54:57.438Z,1.70
2022-11-04T12:55:57.404Z,2.10
2022-11-04T12:56:57.385Z,1.70
2022-11-04T12:57:57.390Z,1.60
2022-11-04T12:58:57.377Z,1.80
2022-11-04T12:59:57.402Z,1.40
2022-11-04T13:00:59.720Z,1.60
2022-11-04T13:01:58.426Z,1.40
2022-11-04T13:02:57.401Z,1.60
2022-11-04T13:03:57.390Z,1.50
2022-11-04T13:04:57.331Z,1.90
2022-11-04T13:05:57.365Z,2.10
2022-11-04T13:06:57.321Z,1.50
2022-11-04T13:07:57.313Z,1.60
2022-11-04T13:08:57.324Z,1.80
2022-11-04T13:09:57.322Z,1.90
2022-11-04T13:10:57.295Z,1.80
2022-11-04T13:11:57.301Z,1.70
2022-11-04T13:12:57.280Z,1.80
2022-11-04T13:14:01.604Z,1.60
2022-11-04T13:14:58.290Z,1.70
2022-11-04T13:15:57.258Z,1.70
2022-11-04T13:16:57.275Z,1.90
2022-11-04T13:17:57.222Z,1.90
2022-11-04T13:18:57.229Z,2.00
2022-11-04T13:19:57.246Z,1.80
2022-11-04T13:21:02.257Z,1.90
2022-11-04T13:21:59.244Z,1.90
2022-11-04T13:23:02.835Z,1.90
2022-11-04T13:23:59.206Z,1.80
2022-11-04T13:24:57.415Z,1.70
2022-11-04T13:25:57.202Z,2.20
2022-11-04T13:26:57.165Z,1.80
2022-11-04T13:27:57.161Z,1.50
2022-11-04T13:28:57.173Z,1.70
2022-11-04T13:29:57.192Z,1.50